sensor_id;sensor_type;location;lat;lon;timestamp;temperature;humidity
65652;SHT30;52350;51.546;7.002;2022-08-16T00:02:16;21.26;72.07
65652;SHT30;52350;51.546;7.002;2022-08-16T00:04:42;21.20;72.27
65652;SHT30;52350;51.546;7.002;2022-08-16T00:07:07;21.15;72.25
65652;SHT30;52350;51.546;7.002;2022-08-16T00:09:33;21.13;72.33
65652;SHT30;52350;51.546;7.002;2022-08-16T00:11:58;21.11;72.42
65652;SHT30;52350;51.546;7.002;2022-08-16T00:14:25;21.06;72.55
65652;SHT30;52350;51.546;7.002;2022-08-16T00:16:53;21.04;72.60
65652;SHT30;52350;51.546;7.002;2022-08-16T00:19:24;21.03;72.73
65652;SHT30;52350;51.546;7.002;2022-08-16T00:21:53;21.07;72.88
65652;SHT30;52350;51.546;7.002;2022-08-16T00:24:19;21.08;72.86
65652;SHT30;52350;51.546;7.002;2022-08-16T00:26:45;21.07;72.97
65652;SHT30;52350;51.546;7.002;2022-08-16T00:29:11;21.06;72.97
65652;SHT30;52350;51.546;7.002;2022-08-16T00:31:38;21.02;73.03
65652;SHT30;52350;51.546;7.002;2022-08-16T00:34:04;21.02;73.16
65652;SHT30;52350;51.546;7.002;2022-08-16T00:36:30;21.00;73.32
65652;SHT30;52350;51.546;7.002;2022-08-16T00:38:55;20.99;73.36
65652;SHT30;52350;51.546;7.002;2022-08-16T00:41:21;21.02;73.43
65652;SHT30;52350;51.546;7.002;2022-08-16T00:43:46;21.04;73.56
65652;SHT30;52350;51.546;7.002;2022-08-16T00:48:50;21.00;73.68
65652;SHT30;52350;51.546;7.002;2022-08-16T00:51:18;20.96;73.77
65652;SHT30;52350;51.546;7.002;2022-08-16T00:53:46;20.89;73.86
65652;SHT30;52350;51.546;7.002;2022-08-16T00:56:13;20.87;73.93
65652;SHT30;52350;51.546;7.002;2022-08-16T00:58:43;20.86;74.12
65652;SHT30;52350;51.546;7.002;2022-08-16T01:01:10;20.87;74.24
65652;SHT30;52350;51.546;7.002;2022-08-16T01:03:37;20.89;74.29
65652;SHT30;52350;51.546;7.002;2022-08-16T01:06:03;20.87;74.44
65652;SHT30;52350;51.546;7.002;2022-08-16T01:08:30;20.90;74.47
65652;SHT30;52350;51.546;7.002;2022-08-16T01:10:58;21.03;73.16
65652;SHT30;52350;51.546;7.002;2022-08-16T01:13:24;21.27;71.60
65652;SHT30;52350;51.546;7.002;2022-08-16T01:15:57;21.52;70.47
65652;SHT30;52350;51.546;7.002;2022-08-16T01:18:30;21.79;69.30
65652;SHT30;52350;51.546;7.002;2022-08-16T01:21:13;21.92;69.21
65652;SHT30;52350;51.546;7.002;2022-08-16T01:26:36;22.21;67.89
65652;SHT30;52350;51.546;7.002;2022-08-16T01:29:05;22.27;67.76
65652;SHT30;52350;51.546;7.002;2022-08-16T01:31:33;22.17;68.35
65652;SHT30;52350;51.546;7.002;2022-08-16T01:33:59;22.11;68.40
65652;SHT30;52350;51.546;7.002;2022-08-16T01:36:25;22.06;68.60
65652;SHT30;52350;51.546;7.002;2022-08-16T01:38:51;21.99;69.03
65652;SHT30;52350;51.546;7.002;2022-08-16T01:41:24;21.97;69.20
65652;SHT30;52350;51.546;7.002;2022-08-16T01:43:54;22.01;69.00
65652;SHT30;52350;51.546;7.002;2022-08-16T01:48:48;22.01;68.83
65652;SHT30;52350;51.546;7.002;2022-08-16T01:51:17;22.06;68.67
65652;SHT30;52350;51.546;7.002;2022-08-16T01:53:45;22.16;68.28
65652;SHT30;52350;51.546;7.002;2022-08-16T01:56:11;22.18;68.12
65652;SHT30;52350;51.546;7.002;2022-08-16T01:58:36;22.20;68.09
65652;SHT30;52350;51.546;7.002;2022-08-16T02:01:02;22.22;67.86
65652;SHT30;52350;51.546;7.002;2022-08-16T02:03:28;22.20;68.12
65652;SHT30;52350;51.546;7.002;2022-08-16T02:05:54;22.20;68.03
65652;SHT30;52350;51.546;7.002;2022-08-16T02:08:19;22.30;67.88
65652;SHT30;52350;51.546;7.002;2022-08-16T02:10:45;22.17;68.10
65652;SHT30;52350;51.546;7.002;2022-08-16T02:13:10;22.06;68.50
65652;SHT30;52350;51.546;7.002;2022-08-16T02:15:36;22.06;68.51
65652;SHT30;52350;51.546;7.002;2022-08-16T02:18:05;22.03;68.54
65652;SHT30;52350;51.546;7.002;2022-08-16T02:20:32;21.99;68.69
65652;SHT30;52350;51.546;7.002;2022-08-16T02:23:00;22.07;68.36
65652;SHT30;52350;51.546;7.002;2022-08-16T02:25:25;22.00;68.62
65652;SHT30;52350;51.546;7.002;2022-08-16T02:27:51;22.06;68.23
65652;SHT30;52350;51.546;7.002;2022-08-16T02:30:20;21.90;68.79
65652;SHT30;52350;51.546;7.002;2022-08-16T02:32:49;21.85;68.97
65652;SHT30;52350;51.546;7.002;2022-08-16T02:35:15;21.85;68.98
65652;SHT30;52350;51.546;7.002;2022-08-16T02:37:41;21.93;68.69
65652;SHT30;52350;51.546;7.002;2022-08-16T02:40:07;21.82;69.03
65652;SHT30;52350;51.546;7.002;2022-08-16T02:42:34;21.88;68.83
65652;SHT30;52350;51.546;7.002;2022-08-16T02:45:01;21.86;68.88
65652;SHT30;52350;51.546;7.002;2022-08-16T02:47:27;21.89;68.82
65652;SHT30;52350;51.546;7.002;2022-08-16T02:49:53;21.76;69.23
65652;SHT30;52350;51.546;7.002;2022-08-16T02:52:18;21.67;69.46
65652;SHT30;52350;51.546;7.002;2022-08-16T02:54:44;21.66;69.61
65652;SHT30;52350;51.546;7.002;2022-08-16T02:57:09;21.61;69.69
65652;SHT30;52350;51.546;7.002;2022-08-16T02:59:35;21.59;69.79
65652;SHT30;52350;51.546;7.002;2022-08-16T03:02:00;21.45;70.21
65652;SHT30;52350;51.546;7.002;2022-08-16T03:04:26;21.28;71.24
65652;SHT30;52350;51.546;7.002;2022-08-16T03:06:52;21.14;71.84
65652;SHT30;52350;51.546;7.002;2022-08-16T03:09:18;20.96;72.43
65652;SHT30;52350;51.546;7.002;2022-08-16T03:11:43;20.85;72.95
65652;SHT30;52350;51.546;7.002;2022-08-16T03:14:09;20.71;73.44
65652;SHT30;52350;51.546;7.002;2022-08-16T03:16:35;20.80;72.79
65652;SHT30;52350;51.546;7.002;2022-08-16T03:19:00;20.64;73.45
65652;SHT30;52350;51.546;7.002;2022-08-16T03:21:26;20.58;73.77
65652;SHT30;52350;51.546;7.002;2022-08-16T03:23:52;20.47;74.17
65652;SHT30;52350;51.546;7.002;2022-08-16T03:26:18;20.37;74.48
65652;SHT30;52350;51.546;7.002;2022-08-16T03:28:44;20.21;74.95
65652;SHT30;52350;51.546;7.002;2022-08-16T03:31:10;20.07;75.42
65652;SHT30;52350;51.546;7.002;2022-08-16T03:33:36;19.97;75.85
65652;SHT30;52350;51.546;7.002;2022-08-16T03:36:02;19.86;76.15
65652;SHT30;52350;51.546;7.002;2022-08-16T03:38:29;19.80;76.44
65652;SHT30;52350;51.546;7.002;2022-08-16T03:40:55;19.70;76.80
65652;SHT30;52350;51.546;7.002;2022-08-16T03:43:22;19.66;76.94
65652;SHT30;52350;51.546;7.002;2022-08-16T03:45:48;19.55;77.11
65652;SHT30;52350;51.546;7.002;2022-08-16T03:48:16;19.51;77.34
65652;SHT30;52350;51.546;7.002;2022-08-16T03:50:41;19.38;77.79
65652;SHT30;52350;51.546;7.002;2022-08-16T03:53:07;19.36;78.00
65652;SHT30;52350;51.546;7.002;2022-08-16T03:55:32;19.30;78.07
65652;SHT30;52350;51.546;7.002;2022-08-16T03:57:58;19.24;78.29
65652;SHT30;52350;51.546;7.002;2022-08-16T04:00:25;19.20;78.48
65652;SHT30;52350;51.546;7.002;2022-08-16T04:02:53;19.24;78.49
65652;SHT30;52350;51.546;7.002;2022-08-16T04:05:20;19.16;78.50
65652;SHT30;52350;51.546;7.002;2022-08-16T04:07:45;19.18;78.54
65652;SHT30;52350;51.546;7.002;2022-08-16T04:10:11;19.17;78.63
65652;SHT30;52350;51.546;7.002;2022-08-16T04:12:39;19.16;78.48
65652;SHT30;52350;51.546;7.002;2022-08-16T04:15:05;19.11;78.57
65652;SHT30;52350;51.546;7.002;2022-08-16T04:17:33;19.11;78.71
65652;SHT30;52350;51.546;7.002;2022-08-16T04:19:59;19.07;78.87
65652;SHT30;52350;51.546;7.002;2022-08-16T04:22:24;19.10;78.83
65652;SHT30;52350;51.546;7.002;2022-08-16T04:24:50;19.03;78.85
65652;SHT30;52350;51.546;7.002;2022-08-16T04:27:16;19.00;79.06
65652;SHT30;52350;51.546;7.002;2022-08-16T04:29:41;19.02;79.17
65652;SHT30;52350;51.546;7.002;2022-08-16T04:32:07;18.97;79.11
65652;SHT30;52350;51.546;7.002;2022-08-16T04:34:33;18.92;79.34
65652;SHT30;52350;51.546;7.002;2022-08-16T04:37:01;18.93;79.42
65652;SHT30;52350;51.546;7.002;2022-08-16T04:39:28;18.90;79.48
65652;SHT30;52350;51.546;7.002;2022-08-16T04:41:55;18.87;79.52
65652;SHT30;52350;51.546;7.002;2022-08-16T04:44:21;18.87;79.58
65652;SHT30;52350;51.546;7.002;2022-08-16T04:46:46;18.87;79.62
65652;SHT30;52350;51.546;7.002;2022-08-16T04:49:12;18.87;79.68
65652;SHT30;52350;51.546;7.002;2022-08-16T04:51:37;18.82;79.80
65652;SHT30;52350;51.546;7.002;2022-08-16T04:54:06;18.87;79.78
65652;SHT30;52350;51.546;7.002;2022-08-16T04:56:32;18.89;79.91
65652;SHT30;52350;51.546;7.002;2022-08-16T04:58:58;18.87;80.06
65652;SHT30;52350;51.546;7.002;2022-08-16T05:01:24;18.89;79.96
65652;SHT30;52350;51.546;7.002;2022-08-16T05:03:49;18.93;79.98
65652;SHT30;52350;51.546;7.002;2022-08-16T05:06:15;19.24;78.39
65652;SHT30;52350;51.546;7.002;2022-08-16T05:08:40;19.34;78.16
65652;SHT30;52350;51.546;7.002;2022-08-16T05:11:07;19.63;76.82
65652;SHT30;52350;51.546;7.002;2022-08-16T05:13:35;19.82;76.13
65652;SHT30;52350;51.546;7.002;2022-08-16T05:16:01;19.96;75.60
65652;SHT30;52350;51.546;7.002;2022-08-16T05:18:27;20.27;74.06
65652;SHT30;52350;51.546;7.002;2022-08-16T05:20:52;20.31;74.20
65652;SHT30;52350;51.546;7.002;2022-08-16T05:23:18;20.41;73.70
65652;SHT30;52350;51.546;7.002;2022-08-16T05:25:43;20.44;73.72
65652;SHT30;52350;51.546;7.002;2022-08-16T05:28:09;20.47;73.41
65652;SHT30;52350;51.546;7.002;2022-08-16T05:30:35;20.73;72.50
65652;SHT30;52350;51.546;7.002;2022-08-16T05:33:02;20.58;72.97
65652;SHT30;52350;51.546;7.002;2022-08-16T05:35:29;20.64;72.95
65652;SHT30;52350;51.546;7.002;2022-08-16T05:37:54;20.71;72.69
65652;SHT30;52350;51.546;7.002;2022-08-16T05:40:20;20.76;72.63
65652;SHT30;52350;51.546;7.002;2022-08-16T05:42:45;20.76;72.55
65652;SHT30;52350;51.546;7.002;2022-08-16T05:45:11;20.77;72.50
65652;SHT30;52350;51.546;7.002;2022-08-16T05:47:37;20.83;72.63
65652;SHT30;52350;51.546;7.002;2022-08-16T05:50:03;20.94;71.94
65652;SHT30;52350;51.546;7.002;2022-08-16T05:52:30;20.92;72.24
65652;SHT30;52350;51.546;7.002;2022-08-16T05:54:55;21.08;71.58
65652;SHT30;52350;51.546;7.002;2022-08-16T05:57:21;21.07;71.71
65652;SHT30;52350;51.546;7.002;2022-08-16T05:59:46;21.08;71.89
65652;SHT30;52350;51.546;7.002;2022-08-16T06:02:12;21.11;71.95
65652;SHT30;52350;51.546;7.002;2022-08-16T06:04:37;21.24;71.27
65652;SHT30;52350;51.546;7.002;2022-08-16T06:07:04;21.24;71.56
65652;SHT30;52350;51.546;7.002;2022-08-16T06:09:31;21.31;71.14
65652;SHT30;52350;51.546;7.002;2022-08-16T06:11:57;21.49;70.32
65652;SHT30;52350;51.546;7.002;2022-08-16T06:14:25;21.47;70.57
65652;SHT30;52350;51.546;7.002;2022-08-16T06:16:51;21.62;70.07
65652;SHT30;52350;51.546;7.002;2022-08-16T06:19:17;21.61;69.88
65652;SHT30;52350;51.546;7.002;2022-08-16T06:21:43;21.65;69.81
65652;SHT30;52350;51.546;7.002;2022-08-16T06:24:09;21.61;69.88
65652;SHT30;52350;51.546;7.002;2022-08-16T06:26:35;21.62;70.12
65652;SHT30;52350;51.546;7.002;2022-08-16T06:29:00;21.61;70.53
65652;SHT30;52350;51.546;7.002;2022-08-16T06:31:25;21.72;69.84
65652;SHT30;52350;51.546;7.002;2022-08-16T06:33:51;21.75;70.46
65652;SHT30;52350;51.546;7.002;2022-08-16T06:36:17;21.83;69.96
65652;SHT30;52350;51.546;7.002;2022-08-16T06:38:42;21.85;69.94
65652;SHT30;52350;51.546;7.002;2022-08-16T06:41:08;21.97;69.38
65652;SHT30;52350;51.546;7.002;2022-08-16T06:43:35;22.04;69.21
65652;SHT30;52350;51.546;7.002;2022-08-16T06:46:01;22.07;69.46
65652;SHT30;52350;51.546;7.002;2022-08-16T06:48:30;22.17;69.37
65652;SHT30;52350;51.546;7.002;2022-08-16T06:50:58;22.33;68.79
65652;SHT30;52350;51.546;7.002;2022-08-16T06:53:24;22.54;68.22
65652;SHT30;52350;51.546;7.002;2022-08-16T06:55:49;22.68;68.03
65652;SHT30;52350;51.546;7.002;2022-08-16T06:58:17;22.86;67.43
65652;SHT30;52350;51.546;7.002;2022-08-16T07:00:43;23.02;66.91
65652;SHT30;52350;51.546;7.002;2022-08-16T07:03:08;23.14;66.56
65652;SHT30;52350;51.546;7.002;2022-08-16T07:05:34;23.27;65.79
65652;SHT30;52350;51.546;7.002;2022-08-16T07:07:59;23.48;66.12
65652;SHT30;52350;51.546;7.002;2022-08-16T07:10:28;23.63;64.90
65652;SHT30;52350;51.546;7.002;2022-08-16T07:12:54;23.70;64.92
65652;SHT30;52350;51.546;7.002;2022-08-16T07:15:20;23.85;65.04
65652;SHT30;52350;51.546;7.002;2022-08-16T07:17:45;24.06;64.11
65652;SHT30;52350;51.546;7.002;2022-08-16T07:20:13;24.25;64.33
65652;SHT30;52350;51.546;7.002;2022-08-16T07:22:39;24.48;62.90
65652;SHT30;52350;51.546;7.002;2022-08-16T07:25:09;24.66;62.36
65652;SHT30;52350;51.546;7.002;2022-08-16T07:27:37;24.87;62.63
65652;SHT30;52350;51.546;7.002;2022-08-16T07:30:05;25.14;61.33
65652;SHT30;52350;51.546;7.002;2022-08-16T07:32:34;25.21;61.37
65652;SHT30;52350;51.546;7.002;2022-08-16T07:35:00;25.39;61.16
65652;SHT30;52350;51.546;7.002;2022-08-16T07:37:25;25.48;60.06
65652;SHT30;52350;51.546;7.002;2022-08-16T07:39:51;25.57;60.30
65652;SHT30;52350;51.546;7.002;2022-08-16T07:42:17;25.75;59.56
65652;SHT30;52350;51.546;7.002;2022-08-16T07:44:43;25.68;59.09
65652;SHT30;52350;51.546;7.002;2022-08-16T07:47:08;25.82;59.59
65652;SHT30;52350;51.546;7.002;2022-08-16T07:49:34;25.92;59.00
65652;SHT30;52350;51.546;7.002;2022-08-16T07:51:59;26.09;59.00
65652;SHT30;52350;51.546;7.002;2022-08-16T07:54:24;26.07;58.23
65652;SHT30;52350;51.546;7.002;2022-08-16T07:56:50;25.97;58.50
65652;SHT30;52350;51.546;7.002;2022-08-16T07:59:16;25.97;58.36
65652;SHT30;52350;51.546;7.002;2022-08-16T08:01:42;26.06;58.86
65652;SHT30;52350;51.546;7.002;2022-08-16T08:04:07;26.27;58.60
65652;SHT30;52350;51.546;7.002;2022-08-16T08:06:37;26.40;57.84
65652;SHT30;52350;51.546;7.002;2022-08-16T08:09:03;26.59;56.99
65652;SHT30;52350;51.546;7.002;2022-08-16T08:11:29;26.58;57.06
65652;SHT30;52350;51.546;7.002;2022-08-16T08:13:55;26.79;56.45
65652;SHT30;52350;51.546;7.002;2022-08-16T08:16:24;27.02;56.66
65652;SHT30;52350;51.546;7.002;2022-08-16T08:18:50;26.99;55.68
65652;SHT30;52350;51.546;7.002;2022-08-16T08:21:19;27.09;55.83
65652;SHT30;52350;51.546;7.002;2022-08-16T08:23:45;27.23;56.39
65652;SHT30;52350;51.546;7.002;2022-08-16T08:26:12;27.45;55.29
65652;SHT30;52350;51.546;7.002;2022-08-16T08:28:38;27.57;54.54
65652;SHT30;52350;51.546;7.002;2022-08-16T08:31:04;27.72;54.32
65652;SHT30;52350;51.546;7.002;2022-08-16T08:33:30;27.92;54.17
65652;SHT30;52350;51.546;7.002;2022-08-16T08:35:57;27.88;52.79
65652;SHT30;52350;51.546;7.002;2022-08-16T08:38:24;27.90;54.15
65652;SHT30;52350;51.546;7.002;2022-08-16T08:40:52;28.09;53.30
65652;SHT30;52350;51.546;7.002;2022-08-16T08:43:18;28.39;52.60
65652;SHT30;52350;51.546;7.002;2022-08-16T08:45:43;28.50;51.82
65652;SHT30;52350;51.546;7.002;2022-08-16T08:48:09;28.62;52.04
65652;SHT30;52350;51.546;7.002;2022-08-16T08:50:35;28.65;51.61
65652;SHT30;52350;51.546;7.002;2022-08-16T08:53:01;28.62;52.30
65652;SHT30;52350;51.546;7.002;2022-08-16T08:55:27;28.67;51.54
65652;SHT30;52350;51.546;7.002;2022-08-16T08:57:55;28.82;51.35
65652;SHT30;52350;51.546;7.002;2022-08-16T09:00:22;28.79;50.16
65652;SHT30;52350;51.546;7.002;2022-08-16T09:02:49;28.88;50.78
65652;SHT30;52350;51.546;7.002;2022-08-16T09:05:15;29.12;51.11
65652;SHT30;52350;51.546;7.002;2022-08-16T09:07:42;29.27;50.44
65652;SHT30;52350;51.546;7.002;2022-08-16T09:10:09;29.41;49.40
65652;SHT30;52350;51.546;7.002;2022-08-16T09:12:35;29.51;49.06
65652;SHT30;52350;51.546;7.002;2022-08-16T09:15:01;29.29;48.36
65652;SHT30;52350;51.546;7.002;2022-08-16T09:17:27;29.27;47.89
65652;SHT30;52350;51.546;7.002;2022-08-16T09:19:53;29.04;49.75
65652;SHT30;52350;51.546;7.002;2022-08-16T09:22:24;29.04;49.00
65652;SHT30;52350;51.546;7.002;2022-08-16T09:24:50;29.06;49.46
65652;SHT30;52350;51.546;7.002;2022-08-16T09:27:16;29.10;48.88
65652;SHT30;52350;51.546;7.002;2022-08-16T09:29:42;29.41;48.34
65652;SHT30;52350;51.546;7.002;2022-08-16T09:32:08;29.50;48.88
65652;SHT30;52350;51.546;7.002;2022-08-16T09:34:34;29.54;47.05
65652;SHT30;52350;51.546;7.002;2022-08-16T09:37:00;29.40;47.70
65652;SHT30;52350;51.546;7.002;2022-08-16T09:39:25;29.54;48.37
65652;SHT30;52350;51.546;7.002;2022-08-16T09:41:52;29.85;47.88
65652;SHT30;52350;51.546;7.002;2022-08-16T09:44:23;29.99;47.04
65652;SHT30;52350;51.546;7.002;2022-08-16T09:46:50;29.76;46.56
65652;SHT30;52350;51.546;7.002;2022-08-16T09:49:17;29.58;47.52
65652;SHT30;52350;51.546;7.002;2022-08-16T09:51:43;29.71;47.15
65652;SHT30;52350;51.546;7.002;2022-08-16T09:54:08;29.92;46.88
65652;SHT30;52350;51.546;7.002;2022-08-16T09:56:35;30.17;45.19
65652;SHT30;52350;51.546;7.002;2022-08-16T09:59:03;30.41;45.04
65652;SHT30;52350;51.546;7.002;2022-08-16T10:01:30;30.44;44.94
65652;SHT30;52350;51.546;7.002;2022-08-16T10:03:56;30.49;46.15
65652;SHT30;52350;51.546;7.002;2022-08-16T10:06:22;30.72;44.78
65652;SHT30;52350;51.546;7.002;2022-08-16T10:08:48;30.83;44.42
65652;SHT30;52350;51.546;7.002;2022-08-16T10:11:15;30.89;43.95
65652;SHT30;52350;51.546;7.002;2022-08-16T10:13:59;30.65;43.54
65652;SHT30;52350;51.546;7.002;2022-08-16T10:16:24;30.61;43.48
65652;SHT30;52350;51.546;7.002;2022-08-16T10:18:50;30.37;45.00
65652;SHT30;52350;51.546;7.002;2022-08-16T10:21:16;30.28;44.20
65652;SHT30;52350;51.546;7.002;2022-08-16T10:23:43;30.48;44.91
65652;SHT30;52350;51.546;7.002;2022-08-16T10:26:09;30.33;44.40
65652;SHT30;52350;51.546;7.002;2022-08-16T10:28:36;30.34;43.92
65652;SHT30;52350;51.546;7.002;2022-08-16T10:31:02;30.57;43.17
65652;SHT30;52350;51.546;7.002;2022-08-16T10:33:30;31.03;43.72
65652;SHT30;52350;51.546;7.002;2022-08-16T10:35:57;31.27;42.34
65652;SHT30;52350;51.546;7.002;2022-08-16T10:38:22;31.47;41.92
65652;SHT30;52350;51.546;7.002;2022-08-16T10:40:48;31.72;42.00
65652;SHT30;52350;51.546;7.002;2022-08-16T10:43:13;31.82;39.54
65652;SHT30;52350;51.546;7.002;2022-08-16T10:45:39;31.74;40.68
65652;SHT30;52350;51.546;7.002;2022-08-16T10:48:05;31.72;40.90
65652;SHT30;52350;51.546;7.002;2022-08-16T10:50:34;31.75;40.81
65652;SHT30;52350;51.546;7.002;2022-08-16T10:53:00;31.96;40.60
65652;SHT30;52350;51.546;7.002;2022-08-16T10:55:30;32.04;39.80
65652;SHT30;52350;51.546;7.002;2022-08-16T10:57:57;31.93;39.30
65652;SHT30;52350;51.546;7.002;2022-08-16T11:00:26;31.58;39.74
65652;SHT30;52350;51.546;7.002;2022-08-16T11:02:52;31.41;40.58
65652;SHT30;52350;51.546;7.002;2022-08-16T11:05:17;31.40;40.28
65652;SHT30;52350;51.546;7.002;2022-08-16T11:07:45;31.51;39.51
65652;SHT30;52350;51.546;7.002;2022-08-16T11:10:15;31.35;40.68
65652;SHT30;52350;51.546;7.002;2022-08-16T11:12:43;31.75;39.91
65652;SHT30;52350;51.546;7.002;2022-08-16T11:15:09;32.01;39.44
65652;SHT30;52350;51.546;7.002;2022-08-16T11:17:35;32.32;38.74
65652;SHT30;52350;51.546;7.002;2022-08-16T11:20:05;32.67;38.70
65652;SHT30;52350;51.546;7.002;2022-08-16T11:22:37;32.99;37.51
65652;SHT30;52350;51.546;7.002;2022-08-16T11:25:04;33.03;37.95
65652;SHT30;52350;51.546;7.002;2022-08-16T11:27:29;33.05;37.16
65652;SHT30;52350;51.546;7.002;2022-08-16T11:29:55;33.12;36.66
65652;SHT30;52350;51.546;7.002;2022-08-16T11:32:22;33.29;37.12
65652;SHT30;52350;51.546;7.002;2022-08-16T11:34:49;33.73;36.09
65652;SHT30;52350;51.546;7.002;2022-08-16T11:37:14;34.13;35.90
65652;SHT30;52350;51.546;7.002;2022-08-16T11:39:40;34.76;34.58
65652;SHT30;52350;51.546;7.002;2022-08-16T11:42:05;35.43;33.69
65652;SHT30;52350;51.546;7.002;2022-08-16T11:44:31;35.16;33.58
65652;SHT30;52350;51.546;7.002;2022-08-16T11:46:56;35.14;34.61
65652;SHT30;52350;51.546;7.002;2022-08-16T11:49:23;35.77;33.60
65652;SHT30;52350;51.546;7.002;2022-08-16T11:51:48;36.62;31.22
65652;SHT30;52350;51.546;7.002;2022-08-16T11:54:14;37.31;30.20
65652;SHT30;52350;51.546;7.002;2022-08-16T11:56:39;36.73;30.90
65652;SHT30;52350;51.546;7.002;2022-08-16T11:59:05;37.34;30.58
65652;SHT30;52350;51.546;7.002;2022-08-16T12:01:31;38.84;28.24
65652;SHT30;52350;51.546;7.002;2022-08-16T12:03:57;39.94;27.62
65652;SHT30;52350;51.546;7.002;2022-08-16T12:06:22;39.45;28.07
65652;SHT30;52350;51.546;7.002;2022-08-16T12:08:48;39.89;27.35
65652;SHT30;52350;51.546;7.002;2022-08-16T12:11:14;39.92;27.26
65652;SHT30;52350;51.546;7.002;2022-08-16T12:13:40;38.59;28.86
65652;SHT30;52350;51.546;7.002;2022-08-16T12:16:07;36.67;30.72
65652;SHT30;52350;51.546;7.002;2022-08-16T12:18:34;35.98;31.82
65652;SHT30;52350;51.546;7.002;2022-08-16T12:21:01;37.34;30.00
65652;SHT30;52350;51.546;7.002;2022-08-16T12:23:27;38.49;28.71
65652;SHT30;52350;51.546;7.002;2022-08-16T12:25:53;38.75;27.62
65652;SHT30;52350;51.546;7.002;2022-08-16T12:28:19;37.65;28.71
65652;SHT30;52350;51.546;7.002;2022-08-16T12:30:45;36.84;29.98
65652;SHT30;52350;51.546;7.002;2022-08-16T12:33:13;35.28;32.17
65652;SHT30;52350;51.546;7.002;2022-08-16T12:35:40;34.88;32.34
65652;SHT30;52350;51.546;7.002;2022-08-16T12:38:08;36.40;31.22
65652;SHT30;52350;51.546;7.002;2022-08-16T12:40:35;37.79;29.63
65652;SHT30;52350;51.546;7.002;2022-08-16T12:43:05;38.62;28.98
65652;SHT30;52350;51.546;7.002;2022-08-16T12:45:37;37.31;29.87
65652;SHT30;52350;51.546;7.002;2022-08-16T12:48:08;36.42;31.23
65652;SHT30;52350;51.546;7.002;2022-08-16T12:50:54;34.77;33.90
65652;SHT30;52350;51.546;7.002;2022-08-16T12:53:20;35.54;32.86
65652;SHT30;52350;51.546;7.002;2022-08-16T12:55:46;37.01;30.71
65652;SHT30;52350;51.546;7.002;2022-08-16T12:58:12;36.97;29.95
65652;SHT30;52350;51.546;7.002;2022-08-16T13:00:38;35.95;30.34
65652;SHT30;52350;51.546;7.002;2022-08-16T13:03:05;35.11;31.94
65652;SHT30;52350;51.546;7.002;2022-08-16T13:05:33;34.23;33.60
65652;SHT30;52350;51.546;7.002;2022-08-16T13:08:09;33.53;35.20
65652;SHT30;52350;51.546;7.002;2022-08-16T13:10:37;32.84;36.70
65652;SHT30;52350;51.546;7.002;2022-08-16T13:13:03;32.20;36.84
65652;SHT30;52350;51.546;7.002;2022-08-16T13:15:30;31.84;37.36
65652;SHT30;52350;51.546;7.002;2022-08-16T13:17:56;31.58;37.78
65652;SHT30;52350;51.546;7.002;2022-08-16T13:20:22;31.45;38.52
65652;SHT30;52350;51.546;7.002;2022-08-16T13:22:52;31.34;39.16
65652;SHT30;52350;51.546;7.002;2022-08-16T13:25:22;31.29;38.80
65652;SHT30;52350;51.546;7.002;2022-08-16T13:27:50;31.17;39.37
65652;SHT30;52350;51.546;7.002;2022-08-16T13:30:17;31.24;40.21
65652;SHT30;52350;51.546;7.002;2022-08-16T13:32:43;31.30;39.26
65652;SHT30;52350;51.546;7.002;2022-08-16T13:35:09;31.33;39.65
65652;SHT30;52350;51.546;7.002;2022-08-16T13:37:35;31.58;39.85
65652;SHT30;52350;51.546;7.002;2022-08-16T13:40:00;31.93;38.61
65652;SHT30;52350;51.546;7.002;2022-08-16T13:42:27;32.22;38.30
65652;SHT30;52350;51.546;7.002;2022-08-16T13:44:53;32.36;37.38
65652;SHT30;52350;51.546;7.002;2022-08-16T13:47:18;32.44;37.44
65652;SHT30;52350;51.546;7.002;2022-08-16T13:49:44;32.50;36.90
65652;SHT30;52350;51.546;7.002;2022-08-16T13:52:12;32.50;37.68
65652;SHT30;52350;51.546;7.002;2022-08-16T13:54:38;31.96;37.75
65652;SHT30;52350;51.546;7.002;2022-08-16T13:57:04;31.74;38.01
65652;SHT30;52350;51.546;7.002;2022-08-16T13:59:30;31.75;38.74
65652;SHT30;52350;51.546;7.002;2022-08-16T14:01:55;31.92;37.89
65652;SHT30;52350;51.546;7.002;2022-08-16T14:04:29;32.17;38.63
65652;SHT30;52350;51.546;7.002;2022-08-16T14:06:56;32.20;38.56
65652;SHT30;52350;51.546;7.002;2022-08-16T14:09:23;32.13;37.87
65652;SHT30;52350;51.546;7.002;2022-08-16T14:11:50;31.72;38.21
65652;SHT30;52350;51.546;7.002;2022-08-16T14:14:15;31.62;38.08
65652;SHT30;52350;51.546;7.002;2022-08-16T14:16:41;31.45;38.23
65652;SHT30;52350;51.546;7.002;2022-08-16T14:19:06;31.30;38.92
65652;SHT30;52350;51.546;7.002;2022-08-16T14:21:32;31.26;38.58
65652;SHT30;52350;51.546;7.002;2022-08-16T14:23:58;30.99;39.27
65652;SHT30;52350;51.546;7.002;2022-08-16T14:26:24;31.00;39.75
65652;SHT30;52350;51.546;7.002;2022-08-16T14:28:50;30.82;39.38
65652;SHT30;52350;51.546;7.002;2022-08-16T14:31:16;30.90;39.65
65652;SHT30;52350;51.546;7.002;2022-08-16T14:33:43;31.12;39.63
65652;SHT30;52350;51.546;7.002;2022-08-16T14:36:09;31.20;39.16
65652;SHT30;52350;51.546;7.002;2022-08-16T14:38:35;31.12;38.65
65652;SHT30;52350;51.546;7.002;2022-08-16T14:41:00;30.93;39.22
65652;SHT30;52350;51.546;7.002;2022-08-16T14:43:26;30.75;38.63
65652;SHT30;52350;51.546;7.002;2022-08-16T14:45:51;30.49;39.54
65652;SHT30;52350;51.546;7.002;2022-08-16T14:48:18;30.34;40.33
65652;SHT30;52350;51.546;7.002;2022-08-16T14:50:44;30.37;39.94
65652;SHT30;52350;51.546;7.002;2022-08-16T14:53:09;30.43;39.42
65652;SHT30;52350;51.546;7.002;2022-08-16T14:55:36;30.45;39.44
65652;SHT30;52350;51.546;7.002;2022-08-16T14:58:02;30.67;39.71
65652;SHT30;52350;51.546;7.002;2022-08-16T15:00:29;30.86;38.99
65652;SHT30;52350;51.546;7.002;2022-08-16T15:02:56;30.93;38.41
65652;SHT30;52350;51.546;7.002;2022-08-16T15:05:24;30.86;39.14
65652;SHT30;52350;51.546;7.002;2022-08-16T15:07:50;30.76;38.48
65652;SHT30;52350;51.546;7.002;2022-08-16T15:10:17;30.65;38.88
65652;SHT30;52350;51.546;7.002;2022-08-16T15:12:44;30.54;39.05
65652;SHT30;52350;51.546;7.002;2022-08-16T15:15:12;30.45;40.21
65652;SHT30;52350;51.546;7.002;2022-08-16T15:17:39;30.38;39.32
65652;SHT30;52350;51.546;7.002;2022-08-16T15:20:10;30.31;40.07
65652;SHT30;52350;51.546;7.002;2022-08-16T15:22:39;30.21;40.90
65652;SHT30;52350;51.546;7.002;2022-08-16T15:25:07;30.30;39.75
65652;SHT30;52350;51.546;7.002;2022-08-16T15:27:36;30.33;39.75
65652;SHT30;52350;51.546;7.002;2022-08-16T15:30:06;30.34;39.27
65652;SHT30;52350;51.546;7.002;2022-08-16T15:32:34;30.40;41.50
65652;SHT30;52350;51.546;7.002;2022-08-16T15:35:00;30.43;39.94